createdAt,value
2023-02-02T00:01:46.652Z,14.31
2023-02-02T00:04:19.247Z,14.30
2023-02-02T00:06:47.582Z,14.29
2023-02-02T00:09:17.244Z,14.29
2023-02-02T00:11:46.848Z,14.31
2023-02-02T00:14:15.399Z,14.30
2023-02-02T00:16:44.707Z,14.32
2023-02-02T00:19:15.808Z,14.32
2023-02-02T00:21:46.447Z,14.32
2023-02-02T00:24:17.996Z,14.33
2023-02-02T00:26:47.616Z,14.34
2023-02-02T00:29:18.434Z,14.36
2023-02-02T00:31:46.537Z,14.33
2023-02-02T00:34:16.064Z,14.34
2023-02-02T00:36:46.427Z,14.33
2023-02-02T00:39:18.602Z,14.32
2023-02-02T00:41:47.077Z,14.31
2023-02-02T00:44:32.315Z,14.30
2023-02-02T00:47:00.280Z,14.26
2023-02-02T00:49:28.224Z,14.26
2023-02-02T00:51:58.110Z,14.26
2023-02-02T00:54:26.410Z,14.27
2023-02-02T00:56:54.566Z,14.28
2023-02-02T00:59:22.629Z,14.28
2023-02-02T01:01:50.910Z,14.28
2023-02-02T01:04:19.610Z,14.30
2023-02-02T01:06:47.748Z,14.25
2023-02-02T01:09:17.521Z,14.26
2023-02-02T01:11:47.264Z,14.23
2023-02-02T01:14:15.543Z,14.19
2023-02-02T01:16:43.754Z,14.18
2023-02-02T01:19:14.173Z,14.17
2023-02-02T01:21:43.057Z,14.16
2023-02-02T01:24:11.439Z,14.17
2023-02-02T01:26:40.909Z,14.19
2023-02-02T01:29:08.969Z,14.18
2023-02-02T01:31:37.164Z,14.17
2023-02-02T01:34:05.257Z,14.18
2023-02-02T01:36:33.255Z,14.20
2023-02-02T01:39:01.468Z,14.13
2023-02-02T01:41:29.555Z,14.15
2023-02-02T01:44:01.320Z,14.15
2023-02-02T01:46:31.088Z,14.15
2023-02-02T01:49:05.498Z,14.13
2023-02-02T01:51:43.253Z,14.14
2023-02-02T01:54:16.978Z,14.10
2023-02-02T01:56:52.255Z,14.12
2023-02-02T01:59:23.307Z,14.07
2023-02-02T02:01:55.124Z,14.08
2023-02-02T02:04:25.856Z,14.14
2023-02-02T02:06:54.499Z,14.09
2023-02-02T02:09:23.085Z,14.13
2023-02-02T02:11:54.209Z,14.09
2023-02-02T02:14:42.496Z,14.12
2023-02-02T02:17:30.775Z,14.10
2023-02-02T02:20:43.124Z,14.14
2023-02-02T02:24:02.851Z,14.12
2023-02-02T02:26:54.418Z,14.13
2023-02-02T02:29:43.944Z,14.13
2023-02-02T02:32:40.350Z,14.12
2023-02-02T02:35:14.887Z,14.11
2023-02-02T02:37:50.486Z,14.07
2023-02-02T02:40:25.406Z,14.04
2023-02-02T02:42:59.427Z,14.02
2023-02-02T02:45:30.187Z,14.01
2023-02-02T02:48:00.022Z,14.00
2023-02-02T02:50:28.197Z,13.93
2023-02-02T02:53:03.479Z,13.90
2023-02-02T02:55:38.214Z,13.89
2023-02-02T02:58:11.089Z,13.86
2023-02-02T03:00:53.209Z,13.85
2023-02-02T03:03:32.320Z,13.85
2023-02-02T03:06:09.692Z,13.81
2023-02-02T03:08:41.846Z,13.78
2023-02-02T03:11:12.645Z,13.78
2023-02-02T03:13:42.822Z,13.73
2023-02-02T03:16:11.693Z,13.72
2023-02-02T03:18:41.239Z,13.71
2023-02-02T03:21:09.413Z,13.70
2023-02-02T03:23:38.702Z,13.74
2023-02-02T03:26:07.347Z,13.76
2023-02-02T03:28:36.144Z,13.80
2023-02-02T03:31:04.436Z,13.90
2023-02-02T03:33:34.268Z,13.93
2023-02-02T03:36:04.234Z,13.98
2023-02-02T03:38:32.553Z,14.06
2023-02-02T03:41:00.738Z,14.07
2023-02-02T03:43:28.767Z,14.13
2023-02-02T03:45:57.680Z,14.14
2023-02-02T03:48:26.298Z,14.18
2023-02-02T03:50:54.490Z,14.20
2023-02-02T03:53:24.470Z,14.14
2023-02-02T03:55:52.793Z,14.09
2023-02-02T03:58:22.446Z,14.08
2023-02-02T04:00:50.865Z,14.05
2023-02-02T04:03:19.018Z,14.01
2023-02-02T04:05:50.816Z,13.97
2023-02-02T04:08:18.780Z,13.96
2023-02-02T04:10:48.363Z,13.95
2023-02-02T04:13:16.801Z,13.98
2023-02-02T04:15:44.849Z,13.99
2023-02-02T04:18:12.836Z,14.00
2023-02-02T04:20:40.843Z,13.98
2023-02-02T04:23:08.789Z,13.95
2023-02-02T04:25:36.816Z,13.95
2023-02-02T04:28:07.335Z,13.96
2023-02-02T04:30:35.352Z,13.95
2023-02-02T04:33:03.582Z,13.99
2023-02-02T04:35:31.762Z,13.98
2023-02-02T04:37:59.870Z,13.99
2023-02-02T04:40:28.030Z,13.99
2023-02-02T04:42:56.072Z,14.03
2023-02-02T04:45:25.833Z,14.03
2023-02-02T04:47:56.171Z,14.06
2023-02-02T04:50:24.179Z,14.07
2023-02-02T04:52:52.411Z,14.07
2023-02-02T04:55:21.129Z,14.11
2023-02-02T04:57:52.218Z,14.16
2023-02-02T05:00:20.612Z,14.22
2023-02-02T05:02:49.985Z,14.23
2023-02-02T05:05:18.271Z,14.24
2023-02-02T05:07:46.440Z,14.28
2023-02-02T05:10:15.126Z,14.31
2023-02-02T05:12:45.213Z,14.33
2023-02-02T05:15:13.628Z,14.38
2023-02-02T05:17:42.066Z,14.40
2023-02-02T05:20:16.397Z,14.42
2023-02-02T05:22:44.552Z,14.42
2023-02-02T05:25:12.724Z,14.45
2023-02-02T05:27:40.979Z,14.45
2023-02-02T05:30:12.478Z,14.46
2023-02-02T05:32:40.698Z,14.47
2023-02-02T05:35:14.479Z,14.48
2023-02-02T05:37:44.378Z,14.52
2023-02-02T05:40:13.368Z,14.52
2023-02-02T05:42:41.355Z,14.50
2023-02-02T05:45:10.457Z,14.51
2023-02-02T05:47:38.407Z,14.54
2023-02-02T05:50:06.932Z,14.53
2023-02-02T05:52:38.097Z,14.56
2023-02-02T05:55:06.723Z,14.51
2023-02-02T05:57:35.123Z,14.53
2023-02-02T06:00:03.612Z,14.51
2023-02-02T06:02:32.031Z,14.55
2023-02-02T06:05:00.105Z,14.52
2023-02-02T06:07:28.230Z,14.48
2023-02-02T06:09:58.328Z,14.49
2023-02-02T06:12:26.322Z,14.48
2023-02-02T06:14:54.802Z,14.46
2023-02-02T06:17:22.829Z,14.42
2023-02-02T06:19:50.909Z,14.46
2023-02-02T06:22:18.904Z,14.41
2023-02-02T06:24:46.877Z,14.43
2023-02-02T06:27:16.527Z,14.44
2023-02-02T06:29:44.412Z,14.44
2023-02-02T06:32:12.510Z,14.47
2023-02-02T06:34:40.530Z,14.46
2023-02-02T06:37:08.637Z,14.49
2023-02-02T06:39:36.728Z,14.50
2023-02-02T06:42:19.362Z,14.48
2023-02-02T06:44:50.610Z,14.49
2023-02-02T06:47:18.508Z,14.51
2023-02-02T06:49:46.575Z,14.52
2023-02-02T06:52:14.552Z,14.56
2023-02-02T06:54:42.526Z,14.55
2023-02-02T06:57:10.582Z,14.54
2023-02-02T06:59:38.614Z,14.58
2023-02-02T07:02:12.294Z,14.55
2023-02-02T07:04:40.229Z,14.55
2023-02-02T07:07:08.168Z,14.54
2023-02-02T07:09:36.964Z,14.59
2023-02-02T07:12:05.106Z,14.50
2023-02-02T07:14:33.040Z,14.57
2023-02-02T07:17:01.015Z,14.56
2023-02-02T07:19:30.707Z,14.58
2023-02-02T07:21:58.626Z,14.58
2023-02-02T07:24:28.664Z,14.54
2023-02-02T07:26:58.118Z,14.50
2023-02-02T07:29:26.680Z,14.50
2023-02-02T07:31:55.022Z,14.47
2023-02-02T07:34:23.328Z,14.48
2023-02-02T07:36:52.990Z,14.44
2023-02-02T07:39:21.087Z,14.43
2023-02-02T07:41:49.161Z,14.43
2023-02-02T07:44:17.993Z,14.49
2023-02-02T07:46:47.129Z,14.50
2023-02-02T07:49:16.927Z,14.50
2023-02-02T07:51:47.746Z,14.50
2023-02-02T07:54:18.338Z,14.51
2023-02-02T07:56:46.550Z,14.52
2023-02-02T07:59:14.676Z,14.51
2023-02-02T08:01:43.379Z,14.47
2023-02-02T08:04:11.347Z,14.50
2023-02-02T08:06:41.568Z,14.51
2023-02-02T08:09:11.135Z,14.51
2023-02-02T08:11:40.642Z,14.53
2023-02-02T08:14:08.799Z,14.51
2023-02-02T08:16:37.171Z,14.58
2023-02-02T08:19:05.720Z,14.56
2023-02-02T08:21:34.811Z,14.61
2023-02-02T08:24:04.650Z,14.59
2023-02-02T08:26:33.436Z,14.61
2023-02-02T08:29:05.818Z,14.60
2023-02-02T08:31:35.762Z,14.59
2023-02-02T08:34:03.894Z,14.62
2023-02-02T08:36:35.618Z,14.63
2023-02-02T08:39:05.999Z,14.63
2023-02-02T08:41:34.825Z,14.65
2023-02-02T08:44:07.041Z,14.68
2023-02-02T08:46:41.908Z,14.70
2023-02-02T08:49:11.748Z,14.72
2023-02-02T08:51:39.818Z,14.71
2023-02-02T08:54:07.810Z,14.70
2023-02-02T08:56:35.835Z,14.76
2023-02-02T08:59:06.148Z,14.75
2023-02-02T09:01:35.753Z,14.79
2023-02-02T09:04:05.954Z,14.81
2023-02-02T09:06:35.715Z,14.82
2023-02-02T09:09:04.706Z,14.85
2023-02-02T09:11:33.203Z,14.91
2023-02-02T09:14:02.315Z,14.94
2023-02-02T09:16:31.713Z,14.93
2023-02-02T09:18:59.948Z,14.99
2023-02-02T09:21:29.063Z,15.01
2023-02-02T09:23:56.897Z,15.04
2023-02-02T09:26:28.704Z,15.09
2023-02-02T09:28:59.213Z,15.14
2023-02-02T09:31:27.760Z,15.11
2023-02-02T09:33:57.504Z,15.17
2023-02-02T09:36:26.973Z,15.17
2023-02-02T09:38:58.277Z,15.22
2023-02-02T09:42:01.303Z,15.23
2023-02-02T09:44:46.893Z,15.25
2023-02-02T09:47:20.759Z,15.26
2023-02-02T09:50:01.555Z,15.28
2023-02-02T09:52:31.856Z,15.33
2023-02-02T09:55:04.551Z,15.35
2023-02-02T09:57:40.595Z,15.34
2023-02-02T10:00:25.769Z,15.32
2023-02-02T10:03:01.008Z,15.33
2023-02-02T10:05:43.922Z,15.35
2023-02-02T10:08:33.652Z,15.38
2023-02-02T10:11:10.501Z,15.40
2023-02-02T10:13:43.770Z,15.39
2023-02-02T10:16:18.217Z,15.35
2023-02-02T10:18:53.115Z,15.36
2023-02-02T10:21:30.400Z,15.42
2023-02-02T10:24:00.167Z,15.44
2023-02-02T10:26:38.080Z,15.56
2023-02-02T10:29:17.006Z,15.63
2023-02-02T10:31:54.412Z,15.66
2023-02-02T10:34:29.355Z,15.72
2023-02-02T10:37:06.692Z,15.76
2023-02-02T10:39:48.130Z,15.82
2023-02-02T10:42:28.176Z,15.79
2023-02-02T10:45:00.293Z,15.73
2023-02-02T10:47:31.590Z,15.70
2023-02-02T10:50:09.169Z,15.62
2023-02-02T10:52:39.873Z,15.59
2023-02-02T10:55:18.628Z,15.51
2023-02-02T10:58:02.137Z,15.49
2023-02-02T11:00:36.305Z,15.52
2023-02-02T11:03:07.320Z,15.54
2023-02-02T11:05:53.558Z,15.54
2023-02-02T11:08:30.462Z,15.52
2023-02-02T11:11:09.983Z,15.50
2023-02-02T11:13:43.463Z,15.48
2023-02-02T11:16:32.685Z,15.50
2023-02-02T11:19:23.907Z,15.57
2023-02-02T11:21:54.849Z,15.63
2023-02-02T11:24:28.961Z,15.68
2023-02-02T11:27:01.238Z,15.74
2023-02-02T11:29:32.654Z,15.79
2023-02-02T11:32:20.094Z,15.78
2023-02-02T11:34:48.222Z,15.77
2023-02-02T11:37:22.285Z,15.79
2023-02-02T11:39:53.913Z,15.73
2023-02-02T11:42:29.449Z,15.83
2023-02-02T11:45:00.979Z,15.84
2023-02-02T11:47:31.792Z,15.84
2023-02-02T11:50:02.603Z,15.87
2023-02-02T11:52:34.227Z,15.84
2023-02-02T11:55:16.360Z,15.85
2023-02-02T11:58:27.538Z,15.83
2023-02-02T12:01:00.306Z,15.83
2023-02-02T12:03:34.713Z,15.84
2023-02-02T12:06:18.565Z,15.81
2023-02-02T12:08:47.255Z,15.81
2023-02-02T12:11:29.637Z,15.79
2023-02-02T12:14:12.166Z,15.78
2023-02-02T12:16:53.959Z,15.75
2023-02-02T12:19:46.152Z,15.67
2023-02-02T12:22:25.656Z,15.53
2023-02-02T12:24:58.655Z,15.44
2023-02-02T12:27:38.952Z,15.43
2023-02-02T12:30:24.305Z,15.47
2023-02-02T12:33:07.244Z,15.57
2023-02-02T12:35:54.811Z,15.58
2023-02-02T12:38:39.776Z,15.60
2023-02-02T12:41:25.437Z,15.62
2023-02-02T12:44:04.163Z,15.64
2023-02-02T12:46:55.767Z,15.69
2023-02-02T12:49:37.642Z,15.64
2023-02-02T12:52:31.668Z,15.61
2023-02-02T12:55:13.357Z,15.52
2023-02-02T12:57:54.221Z,15.57
2023-02-02T13:00:39.839Z,15.67
2023-02-02T13:03:22.542Z,15.78
2023-02-02T13:06:03.809Z,15.91
2023-02-02T13:08:35.137Z,15.92
2023-02-02T13:11:28.484Z,15.99
2023-02-02T13:13:59.827Z,16.08
2023-02-02T13:16:32.204Z,16.12
2023-02-02T13:19:05.851Z,16.15
2023-02-02T13:21:34.183Z,16.18
2023-02-02T13:24:06.048Z,16.22
2023-02-02T13:26:39.047Z,16.10
2023-02-02T13:29:13.000Z,16.03
2023-02-02T13:31:48.623Z,15.96
2023-02-02T13:34:22.086Z,15.93
2023-02-02T13:36:55.568Z,15.93
2023-02-02T13:39:30.388Z,16.00
2023-02-02T13:41:58.923Z,16.00
2023-02-02T13:44:33.474Z,15.94
2023-02-02T13:47:06.844Z,15.86
2023-02-02T13:49:41.040Z,15.79
2023-02-02T13:52:26.217Z,15.72
2023-02-02T13:55:25.956Z,15.66
2023-02-02T13:58:17.303Z,15.68
2023-02-02T14:00:49.560Z,15.81
2023-02-02T14:03:32.276Z,15.89
2023-02-02T14:06:07.522Z,15.90
2023-02-02T14:08:36.567Z,15.88
2023-02-02T14:11:06.949Z,15.84
2023-02-02T14:14:00.997Z,15.62
2023-02-02T14:16:47.992Z,15.49
2023-02-02T14:19:19.628Z,15.34
2023-02-02T14:22:01.906Z,15.31
2023-02-02T14:24:42.279Z,15.29
2023-02-02T14:27:57.855Z,15.34
2023-02-02T14:30:35.746Z,15.45
2023-02-02T14:33:39.954Z,15.45
2023-02-02T14:36:15.397Z,15.37
2023-02-02T14:39:05.530Z,15.38
2023-02-02T14:42:28.731Z,15.36
2023-02-02T14:45:15.394Z,15.32
2023-02-02T14:47:49.882Z,15.31
2023-02-02T14:50:23.212Z,15.36
2023-02-02T14:53:03.025Z,15.53
2023-02-02T14:55:31.735Z,15.57
2023-02-02T14:58:02.135Z,15.63
2023-02-02T15:00:33.518Z,15.75
2023-02-02T15:03:47.579Z,15.75
2023-02-02T15:06:33.176Z,15.70
2023-02-02T15:09:36.866Z,15.80
2023-02-02T15:12:30.842Z,15.90
2023-02-02T15:15:08.192Z,15.85
2023-02-02T15:17:53.483Z,15.90
2023-02-02T15:20:28.362Z,15.96
2023-02-02T15:23:00.894Z,15.89
2023-02-02T15:25:37.071Z,15.80
2023-02-02T15:28:14.913Z,15.69
2023-02-02T15:30:45.313Z,15.60
2023-02-02T15:33:25.403Z,15.56
2023-02-02T15:35:54.905Z,15.46
2023-02-02T15:38:32.973Z,15.44
2023-02-02T15:41:05.640Z,15.36
2023-02-02T15:43:35.825Z,15.36
2023-02-02T15:46:07.725Z,15.35
2023-02-02T15:48:36.573Z,15.34
2023-02-02T15:51:06.839Z,15.29
2023-02-02T15:53:48.970Z,15.30
2023-02-02T15:56:30.614Z,15.32
2023-02-02T15:59:00.121Z,15.35
2023-02-02T16:01:33.799Z,15.36
2023-02-02T16:04:15.851Z,15.34
2023-02-02T16:06:44.782Z,15.36
2023-02-02T16:09:32.784Z,15.32
2023-02-02T16:12:05.441Z,15.30
2023-02-02T16:14:37.673Z,15.27
2023-02-02T16:17:13.791Z,15.25
2023-02-02T16:19:45.181Z,15.16
2023-02-02T16:22:18.211Z,15.09
2023-02-02T16:24:51.307Z,15.05
2023-02-02T16:27:24.174Z,15.02
2023-02-02T16:29:52.333Z,14.93
2023-02-02T16:32:28.614Z,14.91
2023-02-02T16:34:57.540Z,14.84
2023-02-02T16:37:28.172Z,14.82
2023-02-02T16:39:57.108Z,14.75
2023-02-02T16:42:31.868Z,14.72
2023-02-02T16:45:01.085Z,14.72
2023-02-02T16:47:39.002Z,14.71
2023-02-02T16:50:27.660Z,14.71
2023-02-02T16:52:59.357Z,14.72
2023-02-02T16:55:43.472Z,14.75
2023-02-02T16:58:20.903Z,14.75
2023-02-02T17:01:08.786Z,14.72
2023-02-02T17:03:50.262Z,14.68
2023-02-02T17:06:18.776Z,14.72
2023-02-02T17:08:47.876Z,14.69
2023-02-02T17:11:24.084Z,14.70
2023-02-02T17:13:54.491Z,14.70
2023-02-02T17:16:24.753Z,14.67
2023-02-02T17:18:53.254Z,14.65
2023-02-02T17:21:23.828Z,14.70
2023-02-02T17:23:54.216Z,14.69
2023-02-02T17:26:22.565Z,14.66
2023-02-02T17:28:56.275Z,14.70
2023-02-02T17:31:24.422Z,14.71
2023-02-02T17:33:52.403Z,14.72
2023-02-02T17:36:20.737Z,14.71
2023-02-02T17:38:48.641Z,14.73
2023-02-02T17:41:16.693Z,14.72
2023-02-02T17:43:45.866Z,14.75
2023-02-02T17:46:15.232Z,14.75
2023-02-02T17:48:43.362Z,14.72
2023-02-02T17:51:16.125Z,14.68
2023-02-02T17:53:44.912Z,14.70
2023-02-02T17:56:12.996Z,14.67
2023-02-02T17:58:40.999Z,14.73
2023-02-02T18:01:12.004Z,14.68
2023-02-02T18:03:42.823Z,14.74
2023-02-02T18:06:12.333Z,14.75
2023-02-02T18:08:40.932Z,14.76
2023-02-02T18:11:12.327Z,14.76
2023-02-02T18:13:42.555Z,14.75
2023-02-02T18:16:11.622Z,14.77
2023-02-02T18:18:41.545Z,14.74
2023-02-02T18:21:10.683Z,14.68
2023-02-02T18:23:39.312Z,14.72
2023-02-02T18:26:12.044Z,14.68
2023-02-02T18:28:40.618Z,14.63
2023-02-02T18:31:10.169Z,14.63
2023-02-02T18:33:40.733Z,14.63
2023-02-02T18:36:23.686Z,14.62
2023-02-02T18:38:53.981Z,14.61
2023-02-02T18:41:23.512Z,14.58
2023-02-02T18:43:54.776Z,14.55
2023-02-02T18:46:22.794Z,14.52
2023-02-02T18:48:50.931Z,14.53
2023-02-02T18:51:21.965Z,14.52
2023-02-02T18:53:49.979Z,14.48
2023-02-02T18:56:18.440Z,14.46
2023-02-02T18:58:46.453Z,14.42
2023-02-02T19:01:17.219Z,14.43
2023-02-02T19:03:50.211Z,14.42
2023-02-02T19:06:37.267Z,14.42
2023-02-02T19:09:07.560Z,14.42
2023-02-02T19:11:39.087Z,14.43
2023-02-02T19:14:13.611Z,14.38
2023-02-02T19:16:41.785Z,14.36
2023-02-02T19:19:17.807Z,14.38
2023-02-02T19:21:45.795Z,14.39
2023-02-02T19:24:15.937Z,14.36
2023-02-02T19:26:47.334Z,14.35
2023-02-02T19:29:19.933Z,14.36
2023-02-02T19:31:53.671Z,14.38
2023-02-02T19:34:24.189Z,14.31
2023-02-02T19:36:52.423Z,14.30
2023-02-02T19:39:28.525Z,14.26
2023-02-02T19:42:00.466Z,14.28
2023-02-02T19:44:32.211Z,14.27
2023-02-02T19:47:00.658Z,14.25
2023-02-02T19:49:32.967Z,14.27
2023-02-02T19:52:03.963Z,14.18
2023-02-02T19:54:38.062Z,14.18
2023-02-02T19:57:17.355Z,14.11
2023-02-02T19:59:48.259Z,14.07
2023-02-02T20:02:39.332Z,14.05
2023-02-02T20:05:19.018Z,14.08
2023-02-02T20:07:47.511Z,14.03
2023-02-02T20:10:27.435Z,14.00
2023-02-02T20:12:56.224Z,14.01
2023-02-02T20:15:34.278Z,14.02
2023-02-02T20:18:04.789Z,14.03
2023-02-02T20:20:40.320Z,14.02
2023-02-02T20:23:24.451Z,14.02
2023-02-02T20:25:54.151Z,13.98
2023-02-02T20:28:41.728Z,13.97
2023-02-02T20:31:12.086Z,13.94
2023-02-02T20:33:43.074Z,13.91
2023-02-02T20:36:29.887Z,13.86
2023-02-02T20:39:01.408Z,13.82
2023-02-02T20:41:31.973Z,13.79
2023-02-02T20:43:59.842Z,13.78
2023-02-02T20:46:27.818Z,13.70
2023-02-02T20:48:55.709Z,13.71
2023-02-02T20:51:23.927Z,13.70
2023-02-02T20:53:55.551Z,13.74
2023-02-02T20:56:23.705Z,13.73
2023-02-02T20:58:53.221Z,13.76
2023-02-02T21:01:23.620Z,13.80
2023-02-02T21:03:51.649Z,13.81
2023-02-02T21:06:19.898Z,13.91
2023-02-02T21:08:51.540Z,13.90
2023-02-02T21:11:20.058Z,13.93
2023-02-02T21:13:48.531Z,13.97
2023-02-02T21:16:20.442Z,13.99
2023-02-02T21:18:48.622Z,14.05
2023-02-02T21:21:17.139Z,14.06
2023-02-02T21:23:47.292Z,14.11
2023-02-02T21:26:15.686Z,14.15
2023-02-02T21:28:43.872Z,14.21
2023-02-02T21:31:14.043Z,14.20
2023-02-02T21:33:44.944Z,14.20
2023-02-02T21:36:29.797Z,14.18
2023-02-02T21:39:03.890Z,14.17
2023-02-02T21:41:34.493Z,14.19
2023-02-02T21:44:02.503Z,14.26
2023-02-02T21:46:36.960Z,14.28
2023-02-02T21:49:13.969Z,14.28
2023-02-02T21:51:42.037Z,14.28
2023-02-02T21:54:26.403Z,14.30
2023-02-02T21:56:55.615Z,14.25
2023-02-02T21:59:25.423Z,14.25
2023-02-02T22:01:53.744Z,14.22
2023-02-02T22:04:25.854Z,14.21
2023-02-02T22:06:55.517Z,14.15
2023-02-02T22:09:28.172Z,14.15
2023-02-02T22:11:59.265Z,14.07
2023-02-02T22:14:37.101Z,14.06
2023-02-02T22:17:23.231Z,14.07
2023-02-02T22:19:58.177Z,14.03
2023-02-02T22:22:32.052Z,14.02
2023-02-02T22:25:01.374Z,13.99
2023-02-02T22:27:41.882Z,14.01
2023-02-02T22:30:22.208Z,14.00
2023-02-02T22:32:50.226Z,14.02
2023-02-02T22:35:19.781Z,14.06
2023-02-02T22:37:47.824Z,14.09
2023-02-02T22:40:16.518Z,14.10
2023-02-02T22:42:44.900Z,14.15
2023-02-02T22:45:13.021Z,14.15
2023-02-02T22:47:41.069Z,14.17
2023-02-02T22:50:09.613Z,14.15
2023-02-02T22:52:39.063Z,14.17
2023-02-02T22:55:07.972Z,14.20
2023-02-02T22:57:36.028Z,14.18
2023-02-02T23:00:05.825Z,14.20
2023-02-02T23:02:34.121Z,14.24
2023-02-02T23:05:02.117Z,14.21
2023-02-02T23:07:30.122Z,14.28
2023-02-02T23:09:59.499Z,14.31
2023-02-02T23:12:27.441Z,14.33
2023-02-02T23:14:55.347Z,14.30
2023-02-02T23:17:23.402Z,14.30
2023-02-02T23:19:51.396Z,14.33
2023-02-02T23:22:19.357Z,14.39
2023-02-02T23:24:47.214Z,14.38
2023-02-02T23:27:17.081Z,14.35
2023-02-02T23:29:45.062Z,14.37
2023-02-02T23:32:13.161Z,14.40
2023-02-02T23:34:41.156Z,14.43
2023-02-02T23:37:09.084Z,14.42
2023-02-02T23:39:36.992Z,14.39
2023-02-02T23:42:05.146Z,14.38
2023-02-02T23:44:34.561Z,14.41
2023-02-02T23:47:02.975Z,14.41
2023-02-02T23:49:33.898Z,14.41
2023-02-02T23:52:02.311Z,14.41
2023-02-02T23:54:31.418Z,14.45
2023-02-02T23:56:59.798Z,14.44
2023-02-02T23:59:28.122Z,14.41
